sensor_id;sensor_type;location;lat;lon;timestamp;temperature;humidity
22682;DHT22;11508;50.856;4.380;2022-09-16T00:02:21;15.90;1.00
22682;DHT22;11508;50.856;4.380;2022-09-16T00:04:47;16.10;1.00
22682;DHT22;11508;50.856;4.380;2022-09-16T00:07:12;16.20;1.00
22682;DHT22;11508;50.856;4.380;2022-09-16T00:09:38;16.30;1.00
22682;DHT22;11508;50.856;4.380;2022-09-16T00:12:05;16.10;1.00
22682;DHT22;11508;50.856;4.380;2022-09-16T00:14:31;15.80;1.00
22682;DHT22;11508;50.856;4.380;2022-09-16T00:16:56;15.80;1.00
22682;DHT22;11508;50.856;4.380;2022-09-16T00:19:22;15.70;1.00
22682;DHT22;11508;50.856;4.380;2022-09-16T00:21:48;15.70;1.00
22682;DHT22;11508;50.856;4.380;2022-09-16T00:24:15;15.60;1.00
22682;DHT22;11508;50.856;4.380;2022-09-16T00:26:42;15.50;6.40
22682;DHT22;11508;50.856;4.380;2022-09-16T00:29:08;15.40;14.70
22682;DHT22;11508;50.856;4.380;2022-09-16T00:31:34;15.30;18.80
22682;DHT22;11508;50.856;4.380;2022-09-16T00:34:00;15.30;25.70
22682;DHT22;11508;50.856;4.380;2022-09-16T00:36:26;15.20;30.50
22682;DHT22;11508;50.856;4.380;2022-09-16T00:38:53;15.10;31.20
22682;DHT22;11508;50.856;4.380;2022-09-16T00:41:25;15.10;30.70
22682;DHT22;11508;50.856;4.380;2022-09-16T00:44:04;15.00;36.50
22682;DHT22;11508;50.856;4.380;2022-09-16T00:46:41;15.00;37.50
22682;DHT22;11508;50.856;4.380;2022-09-16T00:49:25;15.00;31.80
22682;DHT22;11508;50.856;4.380;2022-09-16T00:51:55;15.10;24.40
22682;DHT22;11508;50.856;4.380;2022-09-16T00:54:22;15.20;22.60
22682;DHT22;11508;50.856;4.380;2022-09-16T00:56:52;15.20;8.50
22682;DHT22;11508;50.856;4.380;2022-09-16T01:01:52;15.20;1.00
22682;DHT22;11508;50.856;4.380;2022-09-16T01:04:31;15.30;1.00
22682;DHT22;11508;50.856;4.380;2022-09-16T01:06:58;15.20;1.00
22682;DHT22;11508;50.856;4.380;2022-09-16T01:09:26;15.10;6.90
22682;DHT22;11508;50.856;4.380;2022-09-16T01:11:52;15.00;20.40
22682;DHT22;11508;50.856;4.380;2022-09-16T01:14:18;15.10;12.40
22682;DHT22;11508;50.856;4.380;2022-09-16T01:46:53;14.50;22.00
22682;DHT22;11508;50.856;4.380;2022-09-16T01:52:22;14.40;25.40
22682;DHT22;11508;50.856;4.380;2022-09-16T01:54:53;14.40;27.30
22682;DHT22;11508;50.856;4.380;2022-09-16T01:57:26;14.50;25.40
22682;DHT22;11508;50.856;4.380;2022-09-16T02:00:01;14.40;25.90
22682;DHT22;11508;50.856;4.380;2022-09-16T02:02:48;14.50;28.50
22682;DHT22;11508;50.856;4.380;2022-09-16T02:05:38;14.50;25.90
22682;DHT22;11508;50.856;4.380;2022-09-16T02:08:26;14.50;21.30
22682;DHT22;11508;50.856;4.380;2022-09-16T02:10:59;14.50;22.40
22682;DHT22;11508;50.856;4.380;2022-09-16T02:13:31;14.60;20.30
22682;DHT22;11508;50.856;4.380;2022-09-16T02:16:04;14.50;14.00
22682;DHT22;11508;50.856;4.380;2022-09-16T02:18:36;14.50;11.80
22682;DHT22;11508;50.856;4.380;2022-09-16T02:21:06;14.50;7.70
22682;DHT22;11508;50.856;4.380;2022-09-16T02:23:39;14.60;7.70
22682;DHT22;11508;50.856;4.380;2022-09-16T02:26:08;14.70;1.90
22682;DHT22;11508;50.856;4.380;2022-09-16T02:28:39;14.70;1.00
22682;DHT22;11508;50.856;4.380;2022-09-16T02:31:07;14.80;1.00
22682;DHT22;11508;50.856;4.380;2022-09-16T02:33:40;14.90;1.00
22682;DHT22;11508;50.856;4.380;2022-09-16T02:36:11;15.00;1.00
22682;DHT22;11508;50.856;4.380;2022-09-16T02:38:46;15.00;1.00
22682;DHT22;11508;50.856;4.380;2022-09-16T02:41:13;15.00;1.00
22682;DHT22;11508;50.856;4.380;2022-09-16T02:43:42;15.20;1.00
22682;DHT22;11508;50.856;4.380;2022-09-16T02:49:12;15.50;1.00
22682;DHT22;11508;50.856;4.380;2022-09-16T02:54:55;15.00;1.00
22682;DHT22;11508;50.856;4.380;2022-09-16T02:57:25;14.70;12.20
22682;DHT22;11508;50.856;4.380;2022-09-16T02:59:52;14.70;27.00
22682;DHT22;11508;50.856;4.380;2022-09-16T03:02:19;14.60;28.00
22682;DHT22;11508;50.856;4.380;2022-09-16T03:04:45;14.60;33.60
22682;DHT22;11508;50.856;4.380;2022-09-16T03:07:11;14.70;33.80
22682;DHT22;11508;50.856;4.380;2022-09-16T03:09:40;14.70;28.40
22682;DHT22;11508;50.856;4.380;2022-09-16T03:12:09;14.80;32.20
22682;DHT22;11508;50.856;4.380;2022-09-16T03:15:00;14.90;22.70
22682;DHT22;11508;50.856;4.380;2022-09-16T03:20:43;15.10;25.60
22682;DHT22;11508;50.856;4.380;2022-09-16T03:28:45;14.70;45.00
22682;DHT22;11508;50.856;4.380;2022-09-16T03:31:16;14.70;45.40
22682;DHT22;11508;50.856;4.380;2022-09-16T03:36:32;14.50;46.30
22682;DHT22;11508;50.856;4.380;2022-09-16T03:39:00;14.60;45.00
22682;DHT22;11508;50.856;4.380;2022-09-16T03:41:28;14.40;36.10
22682;DHT22;11508;50.856;4.380;2022-09-16T03:43:56;14.30;41.70
22682;DHT22;11508;50.856;4.380;2022-09-16T03:46:23;14.30;40.00
22682;DHT22;11508;50.856;4.380;2022-09-16T03:48:49;14.30;36.20
22682;DHT22;11508;50.856;4.380;2022-09-16T03:51:15;14.40;27.00
22682;DHT22;11508;50.856;4.380;2022-09-16T03:53:41;14.30;29.10
22682;DHT22;11508;50.856;4.380;2022-09-16T03:56:07;14.40;26.60
22682;DHT22;11508;50.856;4.380;2022-09-16T03:58:32;14.50;19.40
22682;DHT22;11508;50.856;4.380;2022-09-16T04:00:58;14.60;20.50
22682;DHT22;11508;50.856;4.380;2022-09-16T04:03:24;14.70;18.00
22682;DHT22;11508;50.856;4.380;2022-09-16T04:05:53;14.70;11.70
22682;DHT22;11508;50.856;4.380;2022-09-16T04:08:19;14.60;12.30
22682;DHT22;11508;50.856;4.380;2022-09-16T04:10:59;14.70;12.70
22682;DHT22;11508;50.856;4.380;2022-09-16T04:13:28;14.50;9.50
22682;DHT22;11508;50.856;4.380;2022-09-16T04:15:53;14.30;16.20
22682;DHT22;11508;50.856;4.380;2022-09-16T04:18:19;14.40;20.80
22682;DHT22;11508;50.856;4.380;2022-09-16T04:20:45;14.30;21.90
22682;DHT22;11508;50.856;4.380;2022-09-16T04:23:11;14.30;20.20
22682;DHT22;11508;50.856;4.380;2022-09-16T04:25:37;14.30;17.00
22682;DHT22;11508;50.856;4.380;2022-09-16T04:28:03;14.10;18.40
22682;DHT22;11508;50.856;4.380;2022-09-16T04:30:28;14.00;24.20
22682;DHT22;11508;50.856;4.380;2022-09-16T04:32:55;14.00;21.20
22682;DHT22;11508;50.856;4.380;2022-09-16T04:35:22;14.10;24.00
22682;DHT22;11508;50.856;4.380;2022-09-16T04:37:48;14.10;18.90
22682;DHT22;11508;50.856;4.380;2022-09-16T04:40:14;14.20;18.50
22682;DHT22;11508;50.856;4.380;2022-09-16T04:42:46;14.40;16.40
22682;DHT22;11508;50.856;4.380;2022-09-16T04:45:12;14.50;14.70
22682;DHT22;11508;50.856;4.380;2022-09-16T04:47:38;14.40;9.60
22682;DHT22;11508;50.856;4.380;2022-09-16T04:50:04;14.40;8.20
22682;DHT22;11508;50.856;4.380;2022-09-16T04:52:30;14.30;15.20
22682;DHT22;11508;50.856;4.380;2022-09-16T04:54:56;14.20;19.90
22682;DHT22;11508;50.856;4.380;2022-09-16T04:57:23;14.20;23.30
22682;DHT22;11508;50.856;4.380;2022-09-16T04:59:48;14.30;22.00
22682;DHT22;11508;50.856;4.380;2022-09-16T05:02:14;14.40;16.90
22682;DHT22;11508;50.856;4.380;2022-09-16T05:04:40;14.40;15.50
22682;DHT22;11508;50.856;4.380;2022-09-16T05:07:05;14.40;19.00
22682;DHT22;11508;50.856;4.380;2022-09-16T05:09:32;14.20;24.90
22682;DHT22;11508;50.856;4.380;2022-09-16T05:11:58;14.10;31.00
22682;DHT22;11508;50.856;4.380;2022-09-16T05:14:23;14.10;40.30
22682;DHT22;11508;50.856;4.380;2022-09-16T05:16:49;14.30;35.10
22682;DHT22;11508;50.856;4.380;2022-09-16T05:19:15;14.50;32.20
22682;DHT22;11508;50.856;4.380;2022-09-16T05:21:41;14.60;29.10
22682;DHT22;11508;50.856;4.380;2022-09-16T05:24:09;14.70;24.70
22682;DHT22;11508;50.856;4.380;2022-09-16T05:26:38;14.40;33.90
22682;DHT22;11508;50.856;4.380;2022-09-16T05:29:06;14.20;48.50
22682;DHT22;11508;50.856;4.380;2022-09-16T05:31:35;14.10;49.30
22682;DHT22;11508;50.856;4.380;2022-09-16T05:34:04;14.10;51.60
22682;DHT22;11508;50.856;4.380;2022-09-16T05:36:33;14.20;53.00
22682;DHT22;11508;50.856;4.380;2022-09-16T05:38:59;14.30;44.20
22682;DHT22;11508;50.856;4.380;2022-09-16T05:41:25;14.40;43.50
22682;DHT22;11508;50.856;4.380;2022-09-16T05:43:52;14.30;42.90
22682;DHT22;11508;50.856;4.380;2022-09-16T05:46:23;14.30;38.40
22682;DHT22;11508;50.856;4.380;2022-09-16T05:48:49;14.20;60.80
22682;DHT22;11508;50.856;4.380;2022-09-16T05:51:17;14.30;57.50
22682;DHT22;11508;50.856;4.380;2022-09-16T05:53:45;14.40;50.90
22682;DHT22;11508;50.856;4.380;2022-09-16T05:56:14;14.50;46.90
22682;DHT22;11508;50.856;4.380;2022-09-16T05:58:40;14.20;68.70
22682;DHT22;11508;50.856;4.380;2022-09-16T06:01:09;14.20;71.60
22682;DHT22;11508;50.856;4.380;2022-09-16T06:03:36;14.10;80.80
22682;DHT22;11508;50.856;4.380;2022-09-16T06:08:31;14.30;81.10
22682;DHT22;11508;50.856;4.380;2022-09-16T06:11:00;14.20;90.80
22682;DHT22;11508;50.856;4.380;2022-09-16T06:13:27;14.30;92.90
22682;DHT22;11508;50.856;4.380;2022-09-16T06:15:53;14.20;96.40
22682;DHT22;11508;50.856;4.380;2022-09-16T06:18:20;14.00;99.40
22682;DHT22;11508;50.856;4.380;2022-09-16T06:20:46;14.10;99.60
22682;DHT22;11508;50.856;4.380;2022-09-16T06:23:12;14.30;99.50
22682;DHT22;11508;50.856;4.380;2022-09-16T06:25:38;14.40;97.80
22682;DHT22;11508;50.856;4.380;2022-09-16T06:28:04;14.10;97.50
22682;DHT22;11508;50.856;4.380;2022-09-16T06:30:30;13.90;99.90
22682;DHT22;11508;50.856;4.380;2022-09-16T06:32:56;14.00;99.90
22682;DHT22;11508;50.856;4.380;2022-09-16T06:35:22;14.10;99.90
22682;DHT22;11508;50.856;4.380;2022-09-16T06:37:48;14.20;99.90
22682;DHT22;11508;50.856;4.380;2022-09-16T06:40:14;14.30;99.90
22682;DHT22;11508;50.856;4.380;2022-09-16T06:42:39;14.40;99.90
22682;DHT22;11508;50.856;4.380;2022-09-16T06:45:06;14.40;99.90
22682;DHT22;11508;50.856;4.380;2022-09-16T06:47:31;14.50;99.70
22682;DHT22;11508;50.856;4.380;2022-09-16T06:50:01;14.50;96.90
22682;DHT22;11508;50.856;4.380;2022-09-16T06:52:27;14.40;98.30
22682;DHT22;11508;50.856;4.380;2022-09-16T06:54:53;14.30;99.90
22682;DHT22;11508;50.856;4.380;2022-09-16T06:57:19;14.40;99.90
22682;DHT22;11508;50.856;4.380;2022-09-16T06:59:51;14.10;99.90
22682;DHT22;11508;50.856;4.380;2022-09-16T07:02:18;13.90;99.90
22682;DHT22;11508;50.856;4.380;2022-09-16T07:04:44;13.60;99.90
22682;DHT22;11508;50.856;4.380;2022-09-16T07:07:11;13.40;99.90
22682;DHT22;11508;50.856;4.380;2022-09-16T07:09:37;13.40;99.90
22682;DHT22;11508;50.856;4.380;2022-09-16T07:12:03;13.50;99.90
22682;DHT22;11508;50.856;4.380;2022-09-16T07:14:29;13.80;99.90
22682;DHT22;11508;50.856;4.380;2022-09-16T07:16:57;13.80;99.90
22682;DHT22;11508;50.856;4.380;2022-09-16T07:19:24;13.60;99.90
22682;DHT22;11508;50.856;4.380;2022-09-16T07:21:50;13.70;99.90
22682;DHT22;11508;50.856;4.380;2022-09-16T07:24:16;13.70;99.90
22682;DHT22;11508;50.856;4.380;2022-09-16T07:26:42;13.60;99.90
22682;DHT22;11508;50.856;4.380;2022-09-16T07:29:13;13.40;99.90
22682;DHT22;11508;50.856;4.380;2022-09-16T07:31:40;13.40;99.90
22682;DHT22;11508;50.856;4.380;2022-09-16T07:34:08;13.30;99.90
22682;DHT22;11508;50.856;4.380;2022-09-16T07:36:42;13.50;99.90
22682;DHT22;11508;50.856;4.380;2022-09-16T07:39:10;13.50;99.90
22682;DHT22;11508;50.856;4.380;2022-09-16T07:41:39;13.80;99.90
22682;DHT22;11508;50.856;4.380;2022-09-16T07:44:07;13.70;99.90
22682;DHT22;11508;50.856;4.380;2022-09-16T07:46:34;13.50;99.90
22682;DHT22;11508;50.856;4.380;2022-09-16T07:49:02;13.60;99.90
22682;DHT22;11508;50.856;4.380;2022-09-16T07:51:29;14.00;99.90
22682;DHT22;11508;50.856;4.380;2022-09-16T07:53:57;14.00;99.90
22682;DHT22;11508;50.856;4.380;2022-09-16T07:56:24;13.90;99.90
22682;DHT22;11508;50.856;4.380;2022-09-16T07:58:52;14.20;99.90
22682;DHT22;11508;50.856;4.380;2022-09-16T08:01:18;14.50;99.90
22682;DHT22;11508;50.856;4.380;2022-09-16T08:03:45;14.50;99.90
22682;DHT22;11508;50.856;4.380;2022-09-16T08:06:22;14.70;98.90
22682;DHT22;11508;50.856;4.380;2022-09-16T08:08:51;14.80;98.40
22682;DHT22;11508;50.856;4.380;2022-09-16T08:11:18;14.60;97.90
22682;DHT22;11508;50.856;4.380;2022-09-16T08:13:44;14.30;99.80
22682;DHT22;11508;50.856;4.380;2022-09-16T08:16:16;14.20;99.90
22682;DHT22;11508;50.856;4.380;2022-09-16T08:18:42;14.20;99.90
22682;DHT22;11508;50.856;4.380;2022-09-16T08:21:15;14.20;99.90
22682;DHT22;11508;50.856;4.380;2022-09-16T08:23:44;14.50;99.90
22682;DHT22;11508;50.856;4.380;2022-09-16T08:26:11;14.40;99.90
22682;DHT22;11508;50.856;4.380;2022-09-16T08:28:39;14.30;99.90
22682;DHT22;11508;50.856;4.380;2022-09-16T08:31:06;14.20;99.90
22682;DHT22;11508;50.856;4.380;2022-09-16T08:33:39;14.20;99.90
22682;DHT22;11508;50.856;4.380;2022-09-16T08:36:14;14.50;99.90
22682;DHT22;11508;50.856;4.380;2022-09-16T08:39:02;14.80;99.90
22682;DHT22;11508;50.856;4.380;2022-09-16T08:44:14;15.20;97.90
22682;DHT22;11508;50.856;4.380;2022-09-16T08:46:51;14.60;99.90
22682;DHT22;11508;50.856;4.380;2022-09-16T08:49:35;14.40;99.90
22682;DHT22;11508;50.856;4.380;2022-09-16T08:54:45;13.90;99.90
22682;DHT22;11508;50.856;4.380;2022-09-16T08:57:19;13.90;99.90
22682;DHT22;11508;50.856;4.380;2022-09-16T08:59:51;14.00;99.90
22682;DHT22;11508;50.856;4.380;2022-09-16T09:04:49;13.60;99.90
22682;DHT22;11508;50.856;4.380;2022-09-16T09:07:25;13.90;99.90
22682;DHT22;11508;50.856;4.380;2022-09-16T09:12:47;14.30;99.90
22682;DHT22;11508;50.856;4.380;2022-09-16T09:15:30;14.50;99.90
22682;DHT22;11508;50.856;4.380;2022-09-16T09:18:27;14.70;99.90
22682;DHT22;11508;50.856;4.380;2022-09-16T09:27:20;14.20;99.90
22682;DHT22;11508;50.856;4.380;2022-09-16T09:30:06;14.20;99.90
22682;DHT22;11508;50.856;4.380;2022-09-16T09:38:24;15.00;98.50
22682;DHT22;11508;50.856;4.380;2022-09-16T09:44:38;15.40;93.70
22682;DHT22;11508;50.856;4.380;2022-09-16T09:47:20;15.50;85.80
22682;DHT22;11508;50.856;4.380;2022-09-16T09:52:58;16.60;53.30
22682;DHT22;11508;50.856;4.380;2022-09-16T09:55:48;16.70;49.40
22682;DHT22;11508;50.856;4.380;2022-09-16T09:58:32;17.00;37.80
22682;DHT22;11508;50.856;4.380;2022-09-16T10:01:09;17.20;23.50
22682;DHT22;11508;50.856;4.380;2022-09-16T10:03:50;17.60;23.00
22682;DHT22;11508;50.856;4.380;2022-09-16T10:06:35;17.80;6.70
22682;DHT22;11508;50.856;4.380;2022-09-16T10:09:14;17.70;6.10
22682;DHT22;11508;50.856;4.380;2022-09-16T10:11:55;17.90;1.70
22682;DHT22;11508;50.856;4.380;2022-09-16T10:14:32;17.80;3.60
22682;DHT22;11508;50.856;4.380;2022-09-16T10:17:14;17.20;4.60
22682;DHT22;11508;50.856;4.380;2022-09-16T10:20:01;17.00;5.90
22682;DHT22;11508;50.856;4.380;2022-09-16T10:22:32;17.10;19.40
22682;DHT22;11508;50.856;4.380;2022-09-16T10:27:36;17.60;1.40
22682;DHT22;11508;50.856;4.380;2022-09-16T10:32:28;17.90;1.00
22682;DHT22;11508;50.856;4.380;2022-09-16T10:34:55;17.00;1.00
22682;DHT22;11508;50.856;4.380;2022-09-16T10:37:21;16.50;99.90
22682;DHT22;11508;50.856;4.380;2022-09-16T10:39:53;15.80;75.60
22682;DHT22;11508;50.856;4.380;2022-09-16T10:42:29;15.30;99.90
22682;DHT22;11508;50.856;4.380;2022-09-16T10:45:24;14.90;99.90
22682;DHT22;11508;50.856;4.380;2022-09-16T10:47:50;14.80;99.90
22682;DHT22;11508;50.856;4.380;2022-09-16T10:50:18;14.80;99.90
22682;DHT22;11508;50.856;4.380;2022-09-16T10:52:46;14.80;99.90
22682;DHT22;11508;50.856;4.380;2022-09-16T10:57:44;15.30;99.90
22682;DHT22;11508;50.856;4.380;2022-09-16T11:00:24;15.70;99.90
22682;DHT22;11508;50.856;4.380;2022-09-16T11:11:45;17.50;73.00
22682;DHT22;11508;50.856;4.380;2022-09-16T11:14:31;17.70;55.70
22682;DHT22;11508;50.856;4.380;2022-09-16T11:35:02;15.30;63.30
22682;DHT22;11508;50.856;4.380;2022-09-16T11:37:37;15.20;78.70
22682;DHT22;11508;50.856;4.380;2022-09-16T11:54:02;15.40;72.30
22682;DHT22;11508;50.856;4.380;2022-09-16T11:56:43;15.30;75.10
22682;DHT22;11508;50.856;4.380;2022-09-16T11:59:18;15.00;95.20
22682;DHT22;11508;50.856;4.380;2022-09-16T12:01:53;14.90;94.80
22682;DHT22;11508;50.856;4.380;2022-09-16T12:04:48;14.60;96.60
22682;DHT22;11508;50.856;4.380;2022-09-16T12:07:31;14.10;99.90
22682;DHT22;11508;50.856;4.380;2022-09-16T12:12:51;14.10;99.90
22682;DHT22;11508;50.856;4.380;2022-09-16T12:15:28;14.00;99.90
22682;DHT22;11508;50.856;4.380;2022-09-16T12:18:23;13.80;99.90
22682;DHT22;11508;50.856;4.380;2022-09-16T12:21:04;13.40;99.90
22682;DHT22;11508;50.856;4.380;2022-09-16T12:23:35;13.40;99.90
22682;DHT22;11508;50.856;4.380;2022-09-16T12:26:17;13.30;99.90
22682;DHT22;11508;50.856;4.380;2022-09-16T12:31:25;13.50;99.90
22682;DHT22;11508;50.856;4.380;2022-09-16T12:34:03;13.60;99.90
22682;DHT22;11508;50.856;4.380;2022-09-16T12:36:33;13.60;99.90
22682;DHT22;11508;50.856;4.380;2022-09-16T12:39:00;13.90;99.90
22682;DHT22;11508;50.856;4.380;2022-09-16T12:41:57;14.40;99.90
22682;DHT22;11508;50.856;4.380;2022-09-16T13:04:33;15.70;72.10
22682;DHT22;11508;50.856;4.380;2022-09-16T13:07:03;15.70;66.30
22682;DHT22;11508;50.856;4.380;2022-09-16T13:09:37;15.80;67.60
22682;DHT22;11508;50.856;4.380;2022-09-16T13:12:06;15.80;70.30
22682;DHT22;11508;50.856;4.380;2022-09-16T13:14:49;15.90;73.20
22682;DHT22;11508;50.856;4.380;2022-09-16T13:17:30;15.90;71.70
22682;DHT22;11508;50.856;4.380;2022-09-16T13:20:03;16.00;77.30
22682;DHT22;11508;50.856;4.380;2022-09-16T13:26:14;16.00;75.50
22682;DHT22;11508;50.856;4.380;2022-09-16T13:28:40;16.00;78.70
22682;DHT22;11508;50.856;4.380;2022-09-16T13:33:46;16.00;67.70
22682;DHT22;11508;50.856;4.380;2022-09-16T13:36:29;16.10;68.40
22682;DHT22;11508;50.856;4.380;2022-09-16T13:39:00;16.00;72.00
22682;DHT22;11508;50.856;4.380;2022-09-16T13:44:01;14.90;83.80
22682;DHT22;11508;50.856;4.380;2022-09-16T13:46:36;14.60;99.10
22682;DHT22;11508;50.856;4.380;2022-09-16T13:51:30;14.00;99.90
22682;DHT22;11508;50.856;4.380;2022-09-16T13:53:58;13.90;99.90
22682;DHT22;11508;50.856;4.380;2022-09-16T14:07:58;14.80;99.90
22682;DHT22;11508;50.856;4.380;2022-09-16T14:11:21;14.90;99.90
22682;DHT22;11508;50.856;4.380;2022-09-16T14:13:43;15.10;96.90
22682;DHT22;11508;50.856;4.380;2022-09-16T14:16:18;15.00;92.20
22682;DHT22;11508;50.856;4.380;2022-09-16T14:21:35;14.70;90.00
22682;DHT22;11508;50.856;4.380;2022-09-16T14:24:12;14.50;91.00
22682;DHT22;11508;50.856;4.380;2022-09-16T14:26:57;14.50;99.40
22682;DHT22;11508;50.856;4.380;2022-09-16T14:29:24;14.60;91.90
22682;DHT22;11508;50.856;4.380;2022-09-16T14:31:53;14.50;91.60
22682;DHT22;11508;50.856;4.380;2022-09-16T14:34:33;14.70;95.40
22682;DHT22;11508;50.856;4.380;2022-09-16T14:37:00;14.70;87.50
22682;DHT22;11508;50.856;4.380;2022-09-16T14:39:27;14.20;73.60
22682;DHT22;11508;50.856;4.380;2022-09-16T14:42:03;14.00;84.10
22682;DHT22;11508;50.856;4.380;2022-09-16T14:44:36;14.30;86.30
22682;DHT22;11508;50.856;4.380;2022-09-16T14:49:42;14.20;59.20
22682;DHT22;11508;50.856;4.380;2022-09-16T14:52:28;14.40;63.10
22682;DHT22;11508;50.856;4.380;2022-09-16T14:54:57;14.30;61.90
22682;DHT22;11508;50.856;4.380;2022-09-16T14:57:25;14.50;62.80
22682;DHT22;11508;50.856;4.380;2022-09-16T14:59:54;14.80;49.90
22682;DHT22;11508;50.856;4.380;2022-09-16T15:03:09;14.90;29.80
22682;DHT22;11508;50.856;4.380;2022-09-16T15:05:24;14.90;36.20
22682;DHT22;11508;50.856;4.380;2022-09-16T15:07:54;14.80;33.30
22682;DHT22;11508;50.856;4.380;2022-09-16T15:10:28;14.40;29.70
22682;DHT22;11508;50.856;4.380;2022-09-16T15:12:57;14.50;43.70
22682;DHT22;11508;50.856;4.380;2022-09-16T15:15:29;14.70;41.20
22682;DHT22;11508;50.856;4.380;2022-09-16T15:18:11;14.80;21.20
22682;DHT22;11508;50.856;4.380;2022-09-16T15:20:50;15.10;31.00
22682;DHT22;11508;50.856;4.380;2022-09-16T15:23:23;15.00;14.40
22682;DHT22;11508;50.856;4.380;2022-09-16T15:26:08;15.00;19.90
22682;DHT22;11508;50.856;4.380;2022-09-16T15:28:34;15.00;23.80
22682;DHT22;11508;50.856;4.380;2022-09-16T15:31:00;15.00;19.60
22682;DHT22;11508;50.856;4.380;2022-09-16T15:33:32;14.80;18.70
22682;DHT22;11508;50.856;4.380;2022-09-16T15:35:59;14.70;17.50
22682;DHT22;11508;50.856;4.380;2022-09-16T15:38:26;14.70;23.00
22682;DHT22;11508;50.856;4.380;2022-09-16T15:41:02;14.90;21.80
22682;DHT22;11508;50.856;4.380;2022-09-16T15:43:36;15.10;20.80
22682;DHT22;11508;50.856;4.380;2022-09-16T15:46:16;15.00;16.40
22682;DHT22;11508;50.856;4.380;2022-09-16T15:48:45;15.00;16.20
22682;DHT22;11508;50.856;4.380;2022-09-16T15:51:36;14.80;29.20
22682;DHT22;11508;50.856;4.380;2022-09-16T15:54:07;15.10;26.80
22682;DHT22;11508;50.856;4.380;2022-09-16T16:01:59;15.20;30.70
22682;DHT22;11508;50.856;4.380;2022-09-16T16:04:30;15.30;22.60
22682;DHT22;11508;50.856;4.380;2022-09-16T16:07:05;15.30;27.50
22682;DHT22;11508;50.856;4.380;2022-09-16T16:09:38;15.30;21.50
22682;DHT22;11508;50.856;4.380;2022-09-16T16:14:31;15.30;24.60
22682;DHT22;11508;50.856;4.380;2022-09-16T16:19:31;15.30;27.60
22682;DHT22;11508;50.856;4.380;2022-09-16T16:21:57;15.30;21.50
22682;DHT22;11508;50.856;4.380;2022-09-16T16:24:25;15.00;27.00
22682;DHT22;11508;50.856;4.380;2022-09-16T16:26:51;14.70;31.20
22682;DHT22;11508;50.856;4.380;2022-09-16T16:29:17;14.40;45.80
22682;DHT22;11508;50.856;4.380;2022-09-16T16:32:04;14.20;63.20
22682;DHT22;11508;50.856;4.380;2022-09-16T16:34:39;14.30;61.10
22682;DHT22;11508;50.856;4.380;2022-09-16T16:37:06;14.30;67.90
22682;DHT22;11508;50.856;4.380;2022-09-16T16:39:32;14.30;81.70
22682;DHT22;11508;50.856;4.380;2022-09-16T16:41:59;14.10;80.30
22682;DHT22;11508;50.856;4.380;2022-09-16T16:44:25;13.90;78.80
22682;DHT22;11508;50.856;4.380;2022-09-16T16:46:52;13.30;99.80
22682;DHT22;11508;50.856;4.380;2022-09-16T16:49:18;13.20;99.90
22682;DHT22;11508;50.856;4.380;2022-09-16T16:51:47;13.30;99.90
22682;DHT22;11508;50.856;4.380;2022-09-16T16:54:13;13.30;99.90
22682;DHT22;11508;50.856;4.380;2022-09-16T16:56:39;13.40;99.90
22682;DHT22;11508;50.856;4.380;2022-09-16T16:59:06;13.20;99.90
22682;DHT22;11508;50.856;4.380;2022-09-16T17:01:32;13.20;99.90
22682;DHT22;11508;50.856;4.380;2022-09-16T17:03:59;13.20;99.90
22682;DHT22;11508;50.856;4.380;2022-09-16T17:06:26;13.30;99.90
22682;DHT22;11508;50.856;4.380;2022-09-16T17:08:51;13.40;99.90
22682;DHT22;11508;50.856;4.380;2022-09-16T17:11:19;13.30;99.90
22682;DHT22;11508;50.856;4.380;2022-09-16T17:13:47;12.80;99.90
22682;DHT22;11508;50.856;4.380;2022-09-16T17:16:17;12.80;99.90
22682;DHT22;11508;50.856;4.380;2022-09-16T17:18:44;12.80;99.90
22682;DHT22;11508;50.856;4.380;2022-09-16T17:21:19;12.90;99.90
22682;DHT22;11508;50.856;4.380;2022-09-16T17:23:46;13.10;99.90
22682;DHT22;11508;50.856;4.380;2022-09-16T17:26:12;13.10;99.90
22682;DHT22;11508;50.856;4.380;2022-09-16T17:28:41;13.20;99.90
22682;DHT22;11508;50.856;4.380;2022-09-16T17:31:23;13.30;99.90
22682;DHT22;11508;50.856;4.380;2022-09-16T17:33:52;13.50;99.90
22682;DHT22;11508;50.856;4.380;2022-09-16T17:36:18;13.50;96.00
22682;DHT22;11508;50.856;4.380;2022-09-16T17:38:46;13.10;99.90
22682;DHT22;11508;50.856;4.380;2022-09-16T17:41:15;12.90;99.90
22682;DHT22;11508;50.856;4.380;2022-09-16T17:43:42;12.90;99.90
22682;DHT22;11508;50.856;4.380;2022-09-16T17:46:12;12.90;99.20
22682;DHT22;11508;50.856;4.380;2022-09-16T17:48:38;12.70;99.90
22682;DHT22;11508;50.856;4.380;2022-09-16T17:51:04;12.60;99.90
22682;DHT22;11508;50.856;4.380;2022-09-16T17:53:31;12.50;99.90
22682;DHT22;11508;50.856;4.380;2022-09-16T17:56:08;12.50;99.90
22682;DHT22;11508;50.856;4.380;2022-09-16T17:58:36;12.50;99.90
22682;DHT22;11508;50.856;4.380;2022-09-16T18:01:13;12.60;99.90
22682;DHT22;11508;50.856;4.380;2022-09-16T18:03:41;12.70;99.90
22682;DHT22;11508;50.856;4.380;2022-09-16T18:06:38;12.90;99.90
22682;DHT22;11508;50.856;4.380;2022-09-16T18:09:05;13.00;98.20
22682;DHT22;11508;50.856;4.380;2022-09-16T18:11:34;13.20;97.00
22682;DHT22;11508;50.856;4.380;2022-09-16T18:14:02;13.20;97.40
22682;DHT22;11508;50.856;4.380;2022-09-16T18:16:29;13.00;98.00
22682;DHT22;11508;50.856;4.380;2022-09-16T18:18:58;12.60;99.90
22682;DHT22;11508;50.856;4.380;2022-09-16T18:21:24;12.30;99.90
22682;DHT22;11508;50.856;4.380;2022-09-16T18:23:55;12.30;99.90
22682;DHT22;11508;50.856;4.380;2022-09-16T18:26:21;12.30;99.90
22682;DHT22;11508;50.856;4.380;2022-09-16T18:28:48;12.50;99.90
22682;DHT22;11508;50.856;4.380;2022-09-16T18:31:19;12.60;99.90
22682;DHT22;11508;50.856;4.380;2022-09-16T18:33:45;12.40;99.90
22682;DHT22;11508;50.856;4.380;2022-09-16T18:36:13;12.40;99.90
22682;DHT22;11508;50.856;4.380;2022-09-16T18:38:39;12.50;99.90
22682;DHT22;11508;50.856;4.380;2022-09-16T18:41:07;12.40;99.90
22682;DHT22;11508;50.856;4.380;2022-09-16T18:43:34;12.60;99.90
22682;DHT22;11508;50.856;4.380;2022-09-16T18:46:18;12.70;99.90
22682;DHT22;11508;50.856;4.380;2022-09-16T18:48:45;12.80;99.90
22682;DHT22;11508;50.856;4.380;2022-09-16T18:51:32;12.60;99.90
22682;DHT22;11508;50.856;4.380;2022-09-16T18:54:00;12.50;99.90
22682;DHT22;11508;50.856;4.380;2022-09-16T18:56:28;12.50;99.90
22682;DHT22;11508;50.856;4.380;2022-09-16T18:58:59;12.40;99.90
22682;DHT22;11508;50.856;4.380;2022-09-16T19:01:31;12.50;99.90
22682;DHT22;11508;50.856;4.380;2022-09-16T19:03:59;12.50;99.90
22682;DHT22;11508;50.856;4.380;2022-09-16T19:06:30;12.40;99.90
22682;DHT22;11508;50.856;4.380;2022-09-16T19:08:57;12.50;99.90
22682;DHT22;11508;50.856;4.380;2022-09-16T19:11:23;12.40;99.90
22682;DHT22;11508;50.856;4.380;2022-09-16T19:13:49;12.40;99.90